sensor_id;sensor_type;location;lat;lon;timestamp;pressure;altitude;pressure_sealevel;temperature;humidity
39105;BME280;46464;51.154;13.812;2023-02-13T00:01:09;101387.31;;;5.10;100.00
39105;BME280;46464;51.154;13.812;2023-02-13T00:03:36;101384.63;;;5.08;100.00
39105;BME280;46464;51.154;13.812;2023-02-13T00:06:02;101385.53;;;5.09;100.00
39105;BME280;46464;51.154;13.812;2023-02-13T00:08:29;101382.00;;;5.13;100.00
39105;BME280;46464;51.154;13.812;2023-02-13T00:10:55;101381.13;;;5.14;100.00
39105;BME280;46464;51.154;13.812;2023-02-13T00:13:22;101379.38;;;5.16;100.00
39105;BME280;46464;51.154;13.812;2023-02-13T00:15:58;101375.78;;;5.14;100.00
39105;BME280;46464;51.154;13.812;2023-02-13T00:18:26;101374.00;;;5.14;100.00
39105;BME280;46464;51.154;13.812;2023-02-13T00:21:02;101369.59;;;5.16;100.00
39105;BME280;46464;51.154;13.812;2023-02-13T00:23:30;101373.16;;;5.20;100.00
39105;BME280;46464;51.154;13.812;2023-02-13T00:25:57;101374.03;;;5.19;100.00
39105;BME280;46464;51.154;13.812;2023-02-13T00:28:23;101370.50;;;5.19;100.00
39105;BME280;46464;51.154;13.812;2023-02-13T00:30:50;101366.97;;;5.23;100.00
39105;BME280;46464;51.154;13.812;2023-02-13T00:33:17;101365.19;;;5.22;100.00
39105;BME280;46464;51.154;13.812;2023-02-13T00:35:43;101365.19;;;5.23;100.00
39105;BME280;46464;51.154;13.812;2023-02-13T00:38:09;101373.22;;;5.26;100.00
39105;BME280;46464;51.154;13.812;2023-02-13T00:40:36;101373.22;;;5.28;100.00
39105;BME280;46464;51.154;13.812;2023-02-13T00:43:02;101368.75;;;5.27;100.00
39105;BME280;46464;51.154;13.812;2023-02-13T00:45:29;101370.56;;;5.26;100.00
39105;BME280;46464;51.154;13.812;2023-02-13T00:47:55;101378.59;;;5.31;100.00
39105;BME280;46464;51.154;13.812;2023-02-13T00:50:21;101371.47;;;5.30;100.00
39105;BME280;46464;51.154;13.812;2023-02-13T00:52:48;101382.13;;;5.31;100.00
39105;BME280;46464;51.154;13.812;2023-02-13T00:55:14;101372.34;;;5.29;100.00
39105;BME280;46464;51.154;13.812;2023-02-13T00:57:41;101372.34;;;5.29;100.00
39105;BME280;46464;51.154;13.812;2023-02-13T01:00:07;101371.47;;;5.30;100.00
39105;BME280;46464;51.154;13.812;2023-02-13T01:02:34;101371.47;;;5.28;100.00
39105;BME280;46464;51.154;13.812;2023-02-13T01:05:01;101370.56;;;5.29;100.00
39105;BME280;46464;51.154;13.812;2023-02-13T01:07:28;101375.00;;;5.29;100.00
39105;BME280;46464;51.154;13.812;2023-02-13T01:09:54;101367.94;;;5.31;100.00
39105;BME280;46464;51.154;13.812;2023-02-13T01:12:21;101371.47;;;5.28;100.00
39105;BME280;46464;51.154;13.812;2023-02-13T01:14:47;101377.66;;;5.29;100.00
39105;BME280;46464;51.154;13.812;2023-02-13T01:17:14;101375.94;;;5.34;100.00
39105;BME280;46464;51.154;13.812;2023-02-13T01:19:41;101372.38;;;5.33;100.00
39105;BME280;46464;51.154;13.812;2023-02-13T01:22:07;101372.38;;;5.35;100.00
39105;BME280;46464;51.154;13.812;2023-02-13T01:24:34;101362.63;;;5.37;100.00
39105;BME280;46464;51.154;13.812;2023-02-13T01:27:00;101372.38;;;5.38;100.00
39105;BME280;46464;51.154;13.812;2023-02-13T01:29:27;101368.84;;;5.41;100.00
39105;BME280;46464;51.154;13.812;2023-02-13T01:31:54;101359.97;;;5.39;100.00
39105;BME280;46464;51.154;13.812;2023-02-13T01:34:20;101359.97;;;5.37;100.00
39105;BME280;46464;51.154;13.812;2023-02-13T01:36:47;101356.38;;;5.37;100.00
39105;BME280;46464;51.154;13.812;2023-02-13T01:39:13;101360.81;;;5.34;100.00
39105;BME280;46464;51.154;13.812;2023-02-13T01:41:40;101354.56;;;5.29;100.00
39105;BME280;46464;51.154;13.812;2023-02-13T01:46:52;101351.94;;;5.32;100.00
39105;BME280;46464;51.154;13.812;2023-02-13T01:49:19;101356.34;;;5.30;100.00
39105;BME280;46464;51.154;13.812;2023-02-13T01:51:48;101354.59;;;5.31;100.00
39105;BME280;46464;51.154;13.812;2023-02-13T01:54:20;101351.03;;;5.30;100.00
39105;BME280;46464;51.154;13.812;2023-02-13T01:56:51;101351.06;;;5.33;100.00
39105;BME280;46464;51.154;13.812;2023-02-13T01:59:23;101357.25;;;5.36;100.00
39105;BME280;46464;51.154;13.812;2023-02-13T02:01:50;101355.50;;;5.38;100.00
39105;BME280;46464;51.154;13.812;2023-02-13T02:04:20;101355.47;;;5.34;100.00
39105;BME280;46464;51.154;13.812;2023-02-13T02:06:49;101357.22;;;5.29;100.00
39105;BME280;46464;51.154;13.812;2023-02-13T02:09:18;101356.34;;;5.30;100.00
39105;BME280;46464;51.154;13.812;2023-02-13T02:11:54;101348.34;;;5.30;100.00
39105;BME280;46464;51.154;13.812;2023-02-13T02:14:22;101347.47;;;5.33;100.00
39105;BME280;46464;51.154;13.812;2023-02-13T02:16:48;101345.69;;;5.32;100.00
39105;BME280;46464;51.154;13.812;2023-02-13T02:19:28;101343.91;;;5.28;100.00
39105;BME280;46464;51.154;13.812;2023-02-13T02:24:46;101344.81;;;5.30;100.00
39105;BME280;46464;51.154;13.812;2023-02-13T02:35:15;101343.03;;;5.27;100.00
39105;BME280;46464;51.154;13.812;2023-02-13T02:45:25;101340.38;;;5.27;100.00
39105;BME280;46464;51.154;13.812;2023-02-13T02:48:08;101338.56;;;5.26;100.00
39105;BME280;46464;51.154;13.812;2023-02-13T02:51:37;101343.91;;;5.26;100.00
39105;BME280;46464;51.154;13.812;2023-02-13T02:53:47;101350.09;;;5.27;100.00
39105;BME280;46464;51.154;13.812;2023-02-13T02:56:24;101345.66;;;5.26;100.00
39105;BME280;46464;51.154;13.812;2023-02-13T02:58:53;101347.44;;;5.25;100.00
39105;BME280;46464;51.154;13.812;2023-02-13T03:01:40;101348.34;;;5.27;100.00
39105;BME280;46464;51.154;13.812;2023-02-13T03:04:35;101353.66;;;5.21;100.00
39105;BME280;46464;51.154;13.812;2023-02-13T03:07:22;101352.72;;;5.19;100.00
39105;BME280;46464;51.154;13.812;2023-02-13T03:09:50;101357.19;;;5.23;100.00
39105;BME280;46464;51.154;13.812;2023-02-13T03:15:49;101358.09;;;5.27;100.00
39105;BME280;46464;51.154;13.812;2023-02-13T03:18:39;101358.09;;;5.24;100.00
39105;BME280;46464;51.154;13.812;2023-02-13T03:29:43;101360.75;;;5.24;100.00
39105;BME280;46464;51.154;13.812;2023-02-13T03:37:54;101355.41;;;5.21;100.00
39105;BME280;46464;51.154;13.812;2023-02-13T03:40:26;101358.06;;;5.17;100.00
39105;BME280;46464;51.154;13.812;2023-02-13T03:42:55;101356.28;;;5.18;100.00
39105;BME280;46464;51.154;13.812;2023-02-13T03:45:28;101359.84;;;5.19;100.00
39105;BME280;46464;51.154;13.812;2023-02-13T03:48:15;101355.44;;;5.22;100.00
39105;BME280;46464;51.154;13.812;2023-02-13T03:51:01;101358.94;;;5.20;100.00
39105;BME280;46464;51.154;13.812;2023-02-13T03:53:28;101367.84;;;5.19;100.00
39105;BME280;46464;51.154;13.812;2023-02-13T03:55:58;101357.16;;;5.15;100.00
39105;BME280;46464;51.154;13.812;2023-02-13T03:58:45;101358.03;;;5.14;100.00
